sensor_id;sensor_type;location;lat;lon;timestamp;temperature;humidity
29403;DHT22;16382;59.942;30.472;2023-04-05T00:00:52;2.50;99.90
29403;DHT22;16382;59.942;30.472;2023-04-05T00:03:20;2.50;99.90
29403;DHT22;16382;59.942;30.472;2023-04-05T00:05:47;2.50;99.90
29403;DHT22;16382;59.942;30.472;2023-04-05T00:08:15;2.60;99.90
29403;DHT22;16382;59.942;30.472;2023-04-05T00:10:49;2.50;99.90
29403;DHT22;16382;59.942;30.472;2023-04-05T00:13:16;2.50;99.90
29403;DHT22;16382;59.942;30.472;2023-04-05T00:15:44;2.50;99.90
29403;DHT22;16382;59.942;30.472;2023-04-05T00:18:13;2.50;99.90
29403;DHT22;16382;59.942;30.472;2023-04-05T00:20:46;2.40;99.90
29403;DHT22;16382;59.942;30.472;2023-04-05T00:23:14;2.50;99.90
29403;DHT22;16382;59.942;30.472;2023-04-05T00:25:42;2.50;99.90
29403;DHT22;16382;59.942;30.472;2023-04-05T00:28:10;2.50;99.90
29403;DHT22;16382;59.942;30.472;2023-04-05T00:30:38;2.50;99.90
29403;DHT22;16382;59.942;30.472;2023-04-05T00:33:06;2.50;99.90
29403;DHT22;16382;59.942;30.472;2023-04-05T00:35:35;2.50;99.90
29403;DHT22;16382;59.942;30.472;2023-04-05T00:38:02;2.50;99.90
29403;DHT22;16382;59.942;30.472;2023-04-05T00:40:29;2.50;99.90
29403;DHT22;16382;59.942;30.472;2023-04-05T00:42:57;2.50;99.90
29403;DHT22;16382;59.942;30.472;2023-04-05T00:45:24;2.50;99.90
29403;DHT22;16382;59.942;30.472;2023-04-05T00:47:52;2.50;99.90
29403;DHT22;16382;59.942;30.472;2023-04-05T00:50:20;2.40;99.90
29403;DHT22;16382;59.942;30.472;2023-04-05T00:52:49;2.50;99.90
29403;DHT22;16382;59.942;30.472;2023-04-05T00:55:18;2.40;99.90
29403;DHT22;16382;59.942;30.472;2023-04-05T00:57:45;2.40;99.90
29403;DHT22;16382;59.942;30.472;2023-04-05T01:00:15;2.50;99.90
29403;DHT22;16382;59.942;30.472;2023-04-05T01:02:46;2.40;99.90
29403;DHT22;16382;59.942;30.472;2023-04-05T01:05:28;2.40;99.90
29403;DHT22;16382;59.942;30.472;2023-04-05T01:08:11;2.40;99.90
29403;DHT22;16382;59.942;30.472;2023-04-05T01:10:50;2.40;99.90
29403;DHT22;16382;59.942;30.472;2023-04-05T01:13:18;2.40;99.90
29403;DHT22;16382;59.942;30.472;2023-04-05T01:15:46;2.40;99.90
29403;DHT22;16382;59.942;30.472;2023-04-05T01:18:13;2.40;99.90
29403;DHT22;16382;59.942;30.472;2023-04-05T01:20:57;2.40;99.90
29403;DHT22;16382;59.942;30.472;2023-04-05T01:23:37;2.40;99.90
29403;DHT22;16382;59.942;30.472;2023-04-05T01:26:30;2.40;99.90
29403;DHT22;16382;59.942;30.472;2023-04-05T01:35:30;2.40;99.90
29403;DHT22;16382;59.942;30.472;2023-04-05T01:38:04;2.40;99.90
29403;DHT22;16382;59.942;30.472;2023-04-05T01:40:35;2.40;99.90
29403;DHT22;16382;59.942;30.472;2023-04-05T01:43:12;2.40;99.90
29403;DHT22;16382;59.942;30.472;2023-04-05T01:45:42;2.30;99.90
29403;DHT22;16382;59.942;30.472;2023-04-05T01:48:10;2.30;99.90
29403;DHT22;16382;59.942;30.472;2023-04-05T01:50:38;2.30;99.90
29403;DHT22;16382;59.942;30.472;2023-04-05T01:53:07;2.40;99.90
29403;DHT22;16382;59.942;30.472;2023-04-05T01:55:34;2.30;99.90
29403;DHT22;16382;59.942;30.472;2023-04-05T01:58:02;2.40;99.90
29403;DHT22;16382;59.942;30.472;2023-04-05T02:00:29;2.40;99.90
29403;DHT22;16382;59.942;30.472;2023-04-05T02:02:58;2.40;99.90
29403;DHT22;16382;59.942;30.472;2023-04-05T02:05:26;2.40;99.90
29403;DHT22;16382;59.942;30.472;2023-04-05T02:07:53;2.40;99.90
29403;DHT22;16382;59.942;30.472;2023-04-05T02:10:21;2.40;99.90
29403;DHT22;16382;59.942;30.472;2023-04-05T02:12:49;2.40;99.90
29403;DHT22;16382;59.942;30.472;2023-04-05T02:15:16;2.40;99.90
29403;DHT22;16382;59.942;30.472;2023-04-05T02:17:44;2.40;99.90
29403;DHT22;16382;59.942;30.472;2023-04-05T02:20:13;2.40;99.90
29403;DHT22;16382;59.942;30.472;2023-04-05T02:22:43;2.40;99.90
29403;DHT22;16382;59.942;30.472;2023-04-05T02:25:11;2.40;99.90
29403;DHT22;16382;59.942;30.472;2023-04-05T02:27:39;2.40;99.90
29403;DHT22;16382;59.942;30.472;2023-04-05T02:30:07;2.40;99.90
29403;DHT22;16382;59.942;30.472;2023-04-05T02:32:35;2.30;99.90
29403;DHT22;16382;59.942;30.472;2023-04-05T02:35:03;2.30;99.90
29403;DHT22;16382;59.942;30.472;2023-04-05T02:37:32;2.30;99.90
29403;DHT22;16382;59.942;30.472;2023-04-05T02:40:00;2.30;99.90
29403;DHT22;16382;59.942;30.472;2023-04-05T02:42:30;2.30;99.90
29403;DHT22;16382;59.942;30.472;2023-04-05T02:44:57;2.20;99.90
29403;DHT22;16382;59.942;30.472;2023-04-05T02:47:25;2.20;99.90
29403;DHT22;16382;59.942;30.472;2023-04-05T02:49:56;2.30;99.90
29403;DHT22;16382;59.942;30.472;2023-04-05T02:52:32;2.30;99.90
29403;DHT22;16382;59.942;30.472;2023-04-05T02:54:59;2.30;99.90
29403;DHT22;16382;59.942;30.472;2023-04-05T02:57:30;2.30;99.90
29403;DHT22;16382;59.942;30.472;2023-04-05T03:00:06;2.30;99.90
29403;DHT22;16382;59.942;30.472;2023-04-05T03:02:35;2.30;99.90
29403;DHT22;16382;59.942;30.472;2023-04-05T03:05:05;2.30;99.90
29403;DHT22;16382;59.942;30.472;2023-04-05T03:07:36;2.30;99.90
29403;DHT22;16382;59.942;30.472;2023-04-05T03:10:07;2.30;99.90
29403;DHT22;16382;59.942;30.472;2023-04-05T03:12:38;2.30;99.90
29403;DHT22;16382;59.942;30.472;2023-04-05T03:15:08;2.30;99.90
29403;DHT22;16382;59.942;30.472;2023-04-05T03:17:40;2.30;99.90
29403;DHT22;16382;59.942;30.472;2023-04-05T03:20:11;2.30;99.90
29403;DHT22;16382;59.942;30.472;2023-04-05T03:22:40;2.30;99.90
29403;DHT22;16382;59.942;30.472;2023-04-05T03:25:09;2.30;99.90
29403;DHT22;16382;59.942;30.472;2023-04-05T03:27:43;2.30;99.90
29403;DHT22;16382;59.942;30.472;2023-04-05T03:30:14;2.30;99.90
29403;DHT22;16382;59.942;30.472;2023-04-05T03:32:51;2.40;99.90
29403;DHT22;16382;59.942;30.472;2023-04-05T03:35:38;2.40;99.90
29403;DHT22;16382;59.942;30.472;2023-04-05T03:38:09;2.40;99.90
29403;DHT22;16382;59.942;30.472;2023-04-05T03:40:44;2.40;99.90
29403;DHT22;16382;59.942;30.472;2023-04-05T03:43:12;2.40;99.90
29403;DHT22;16382;59.942;30.472;2023-04-05T03:45:39;2.40;99.90
29403;DHT22;16382;59.942;30.472;2023-04-05T03:48:10;2.40;99.90
29403;DHT22;16382;59.942;30.472;2023-04-05T03:50:37;2.40;99.90
29403;DHT22;16382;59.942;30.472;2023-04-05T03:53:05;2.40;99.90
29403;DHT22;16382;59.942;30.472;2023-04-05T03:55:34;2.40;99.90
29403;DHT22;16382;59.942;30.472;2023-04-05T03:58:04;2.40;99.90
29403;DHT22;16382;59.942;30.472;2023-04-05T04:00:35;2.40;99.90
29403;DHT22;16382;59.942;30.472;2023-04-05T04:03:17;2.50;99.90
29403;DHT22;16382;59.942;30.472;2023-04-05T04:05:59;2.50;99.90
29403;DHT22;16382;59.942;30.472;2023-04-05T04:08:27;2.50;99.90
29403;DHT22;16382;59.942;30.472;2023-04-05T04:10:59;2.40;99.90
29403;DHT22;16382;59.942;30.472;2023-04-05T04:13:31;2.40;99.90
29403;DHT22;16382;59.942;30.472;2023-04-05T04:16:03;2.40;99.90
29403;DHT22;16382;59.942;30.472;2023-04-05T04:18:50;2.40;99.90
29403;DHT22;16382;59.942;30.472;2023-04-05T04:21:30;2.40;99.90
29403;DHT22;16382;59.942;30.472;2023-04-05T04:24:08;2.40;99.90
29403;DHT22;16382;59.942;30.472;2023-04-05T04:26:48;2.50;99.90
29403;DHT22;16382;59.942;30.472;2023-04-05T04:29:38;2.50;99.90
29403;DHT22;16382;59.942;30.472;2023-04-05T04:32:39;2.50;99.90
29403;DHT22;16382;59.942;30.472;2023-04-05T04:35:31;2.50;99.90
29403;DHT22;16382;59.942;30.472;2023-04-05T04:38:29;2.50;99.90
29403;DHT22;16382;59.942;30.472;2023-04-05T04:41:42;2.50;99.90
29403;DHT22;16382;59.942;30.472;2023-04-05T04:44:32;2.40;99.90
29403;DHT22;16382;59.942;30.472;2023-04-05T04:47:12;2.50;99.90
29403;DHT22;16382;59.942;30.472;2023-04-05T04:50:00;2.50;99.90
29403;DHT22;16382;59.942;30.472;2023-04-05T04:52:29;2.60;99.90
29403;DHT22;16382;59.942;30.472;2023-04-05T04:54:57;2.60;99.90
29403;DHT22;16382;59.942;30.472;2023-04-05T04:57:28;2.60;99.90
29403;DHT22;16382;59.942;30.472;2023-04-05T04:59:58;2.70;99.90
29403;DHT22;16382;59.942;30.472;2023-04-05T05:02:26;2.70;99.90
29403;DHT22;16382;59.942;30.472;2023-04-05T05:04:56;2.70;99.90
29403;DHT22;16382;59.942;30.472;2023-04-05T05:07:24;2.70;99.90
29403;DHT22;16382;59.942;30.472;2023-04-05T05:09:52;2.70;99.90
29403;DHT22;16382;59.942;30.472;2023-04-05T05:12:20;2.70;99.90
29403;DHT22;16382;59.942;30.472;2023-04-05T05:14:48;2.80;99.90
29403;DHT22;16382;59.942;30.472;2023-04-05T05:17:20;2.80;99.90
29403;DHT22;16382;59.942;30.472;2023-04-05T05:19:49;2.80;99.90
29403;DHT22;16382;59.942;30.472;2023-04-05T05:22:16;2.80;99.90
29403;DHT22;16382;59.942;30.472;2023-04-05T05:24:44;2.90;99.90
29403;DHT22;16382;59.942;30.472;2023-04-05T05:27:13;2.90;99.90
29403;DHT22;16382;59.942;30.472;2023-04-05T05:29:41;2.90;99.90
29403;DHT22;16382;59.942;30.472;2023-04-05T05:32:08;2.90;99.90
29403;DHT22;16382;59.942;30.472;2023-04-05T05:34:41;3.00;99.90
29403;DHT22;16382;59.942;30.472;2023-04-05T05:37:10;3.00;99.90
29403;DHT22;16382;59.942;30.472;2023-04-05T05:39:38;3.00;99.90
29403;DHT22;16382;59.942;30.472;2023-04-05T05:42:05;3.00;99.90
29403;DHT22;16382;59.942;30.472;2023-04-05T05:44:33;3.10;99.90
29403;DHT22;16382;59.942;30.472;2023-04-05T05:47:01;3.10;99.90
29403;DHT22;16382;59.942;30.472;2023-04-05T05:49:29;3.10;99.90
29403;DHT22;16382;59.942;30.472;2023-04-05T05:51:58;3.20;99.90
29403;DHT22;16382;59.942;30.472;2023-04-05T05:54:25;3.20;99.90
29403;DHT22;16382;59.942;30.472;2023-04-05T05:56:53;3.20;99.90
29403;DHT22;16382;59.942;30.472;2023-04-05T05:59:23;3.30;99.90
29403;DHT22;16382;59.942;30.472;2023-04-05T06:01:51;3.30;99.90
29403;DHT22;16382;59.942;30.472;2023-04-05T06:04:19;3.40;99.90
29403;DHT22;16382;59.942;30.472;2023-04-05T06:06:46;3.40;99.90
29403;DHT22;16382;59.942;30.472;2023-04-05T06:09:16;3.40;99.90
29403;DHT22;16382;59.942;30.472;2023-04-05T06:11:43;3.50;99.90
29403;DHT22;16382;59.942;30.472;2023-04-05T06:14:11;3.50;99.90
29403;DHT22;16382;59.942;30.472;2023-04-05T06:16:38;3.60;99.90
29403;DHT22;16382;59.942;30.472;2023-04-05T06:19:06;3.60;99.90
29403;DHT22;16382;59.942;30.472;2023-04-05T06:21:33;3.60;99.90
29403;DHT22;16382;59.942;30.472;2023-04-05T06:24:01;3.60;99.90
29403;DHT22;16382;59.942;30.472;2023-04-05T06:26:30;3.60;99.90
29403;DHT22;16382;59.942;30.472;2023-04-05T06:28:57;3.60;99.90
29403;DHT22;16382;59.942;30.472;2023-04-05T06:31:29;3.50;99.90
29403;DHT22;16382;59.942;30.472;2023-04-05T06:33:57;3.50;99.90
29403;DHT22;16382;59.942;30.472;2023-04-05T06:36:25;3.60;99.90
29403;DHT22;16382;59.942;30.472;2023-04-05T06:38:52;3.60;99.90
29403;DHT22;16382;59.942;30.472;2023-04-05T06:41:20;3.60;99.90
29403;DHT22;16382;59.942;30.472;2023-04-05T06:43:49;3.70;99.90
29403;DHT22;16382;59.942;30.472;2023-04-05T06:46:17;3.90;99.90
29403;DHT22;16382;59.942;30.472;2023-04-05T06:48:44;4.10;99.90
29403;DHT22;16382;59.942;30.472;2023-04-05T06:51:13;4.30;99.90
29403;DHT22;16382;59.942;30.472;2023-04-05T06:53:40;4.40;99.90
29403;DHT22;16382;59.942;30.472;2023-04-05T06:56:08;4.50;99.90
29403;DHT22;16382;59.942;30.472;2023-04-05T06:58:36;4.70;99.90
29403;DHT22;16382;59.942;30.472;2023-04-05T07:01:05;4.80;99.90
29403;DHT22;16382;59.942;30.472;2023-04-05T07:03:33;4.80;99.90
29403;DHT22;16382;59.942;30.472;2023-04-05T07:06:01;4.90;99.90
29403;DHT22;16382;59.942;30.472;2023-04-05T07:08:31;5.00;99.90
29403;DHT22;16382;59.942;30.472;2023-04-05T07:10:59;5.10;99.90
29403;DHT22;16382;59.942;30.472;2023-04-05T07:13:27;5.20;99.90
29403;DHT22;16382;59.942;30.472;2023-04-05T07:15:59;5.30;99.90
29403;DHT22;16382;59.942;30.472;2023-04-05T07:18:28;5.40;99.90
29403;DHT22;16382;59.942;30.472;2023-04-05T07:20:57;5.40;99.90
29403;DHT22;16382;59.942;30.472;2023-04-05T07:23:29;5.50;99.90
29403;DHT22;16382;59.942;30.472;2023-04-05T07:26:00;5.60;99.90
29403;DHT22;16382;59.942;30.472;2023-04-05T07:28:30;5.70;99.90
29403;DHT22;16382;59.942;30.472;2023-04-05T07:31:00;5.70;99.90
29403;DHT22;16382;59.942;30.472;2023-04-05T07:33:29;5.90;99.90
29403;DHT22;16382;59.942;30.472;2023-04-05T07:35:57;6.00;99.90
29403;DHT22;16382;59.942;30.472;2023-04-05T07:38:25;6.20;99.90
29403;DHT22;16382;59.942;30.472;2023-04-05T07:40:53;6.20;99.90
29403;DHT22;16382;59.942;30.472;2023-04-05T07:43:21;6.30;99.90
29403;DHT22;16382;59.942;30.472;2023-04-05T07:45:50;6.40;99.90
29403;DHT22;16382;59.942;30.472;2023-04-05T07:48:18;6.40;99.90
29403;DHT22;16382;59.942;30.472;2023-04-05T07:50:47;6.60;99.90
29403;DHT22;16382;59.942;30.472;2023-04-05T07:53:18;6.90;99.90
29403;DHT22;16382;59.942;30.472;2023-04-05T07:55:45;7.10;99.90
29403;DHT22;16382;59.942;30.472;2023-04-05T07:58:12;7.20;99.90
29403;DHT22;16382;59.942;30.472;2023-04-05T08:00:41;7.40;99.90
29403;DHT22;16382;59.942;30.472;2023-04-05T08:03:08;7.40;99.90
29403;DHT22;16382;59.942;30.472;2023-04-05T08:05:36;7.40;99.90
29403;DHT22;16382;59.942;30.472;2023-04-05T08:08:06;7.60;99.90
29403;DHT22;16382;59.942;30.472;2023-04-05T08:10:37;7.70;99.90
29403;DHT22;16382;59.942;30.472;2023-04-05T08:13:05;7.80;99.90
29403;DHT22;16382;59.942;30.472;2023-04-05T08:15:40;7.70;99.90
29403;DHT22;16382;59.942;30.472;2023-04-05T08:18:10;7.60;99.90
29403;DHT22;16382;59.942;30.472;2023-04-05T08:20:38;7.50;99.90
29403;DHT22;16382;59.942;30.472;2023-04-05T08:23:07;7.50;99.90
29403;DHT22;16382;59.942;30.472;2023-04-05T08:25:35;7.50;99.90
29403;DHT22;16382;59.942;30.472;2023-04-05T08:28:03;7.50;99.90
29403;DHT22;16382;59.942;30.472;2023-04-05T08:30:31;7.50;99.90
29403;DHT22;16382;59.942;30.472;2023-04-05T08:32:58;7.50;99.90
29403;DHT22;16382;59.942;30.472;2023-04-05T08:35:26;7.50;99.90
29403;DHT22;16382;59.942;30.472;2023-04-05T08:37:53;7.50;99.90
29403;DHT22;16382;59.942;30.472;2023-04-05T08:40:25;7.40;99.90
29403;DHT22;16382;59.942;30.472;2023-04-05T08:43:02;7.50;99.90
29403;DHT22;16382;59.942;30.472;2023-04-05T08:45:33;7.50;99.90
29403;DHT22;16382;59.942;30.472;2023-04-05T08:48:04;7.60;99.90
29403;DHT22;16382;59.942;30.472;2023-04-05T08:50:32;7.50;99.90
29403;DHT22;16382;59.942;30.472;2023-04-05T08:53:00;7.40;99.90
29403;DHT22;16382;59.942;30.472;2023-04-05T08:55:29;7.50;99.90
29403;DHT22;16382;59.942;30.472;2023-04-05T08:57:58;7.50;99.90
29403;DHT22;16382;59.942;30.472;2023-04-05T09:00:29;7.50;99.90
29403;DHT22;16382;59.942;30.472;2023-04-05T09:02:58;7.50;99.90
29403;DHT22;16382;59.942;30.472;2023-04-05T09:05:31;7.50;99.90
29403;DHT22;16382;59.942;30.472;2023-04-05T09:07:58;7.70;99.90
29403;DHT22;16382;59.942;30.472;2023-04-05T09:10:30;7.80;99.90
29403;DHT22;16382;59.942;30.472;2023-04-05T09:12:59;7.80;99.90
29403;DHT22;16382;59.942;30.472;2023-04-05T09:15:29;7.80;99.90
29403;DHT22;16382;59.942;30.472;2023-04-05T09:17:57;7.80;99.90
29403;DHT22;16382;59.942;30.472;2023-04-05T09:20:24;8.00;99.90
29403;DHT22;16382;59.942;30.472;2023-04-05T09:22:52;8.20;99.90
29403;DHT22;16382;59.942;30.472;2023-04-05T09:25:34;8.40;99.90
29403;DHT22;16382;59.942;30.472;2023-04-05T09:28:04;8.70;99.90
29403;DHT22;16382;59.942;30.472;2023-04-05T09:30:33;8.70;99.90
29403;DHT22;16382;59.942;30.472;2023-04-05T09:33:03;8.80;99.90
29403;DHT22;16382;59.942;30.472;2023-04-05T09:35:32;8.70;99.90
29403;DHT22;16382;59.942;30.472;2023-04-05T09:38:00;8.70;99.90
29403;DHT22;16382;59.942;30.472;2023-04-05T09:40:42;8.80;99.90
29403;DHT22;16382;59.942;30.472;2023-04-05T09:43:35;9.00;99.90
29403;DHT22;16382;59.942;30.472;2023-04-05T09:46:03;9.20;99.90
29403;DHT22;16382;59.942;30.472;2023-04-05T09:48:45;9.40;99.90
29403;DHT22;16382;59.942;30.472;2023-04-05T09:51:13;9.50;99.90
29403;DHT22;16382;59.942;30.472;2023-04-05T09:53:56;9.50;99.90
29403;DHT22;16382;59.942;30.472;2023-04-05T09:56:28;9.50;99.90
29403;DHT22;16382;59.942;30.472;2023-04-05T09:59:00;9.50;99.90
29403;DHT22;16382;59.942;30.472;2023-04-05T10:01:32;9.60;99.90
29403;DHT22;16382;59.942;30.472;2023-04-05T10:04:01;9.60;99.90
29403;DHT22;16382;59.942;30.472;2023-04-05T10:06:36;9.70;99.90
29403;DHT22;16382;59.942;30.472;2023-04-05T10:09:06;9.70;99.90
29403;DHT22;16382;59.942;30.472;2023-04-05T10:11:37;9.80;99.90
29403;DHT22;16382;59.942;30.472;2023-04-05T10:14:06;9.80;99.90
29403;DHT22;16382;59.942;30.472;2023-04-05T10:16:38;9.90;99.90
29403;DHT22;16382;59.942;30.472;2023-04-05T10:19:18;9.90;99.90
29403;DHT22;16382;59.942;30.472;2023-04-05T10:21:50;9.80;99.90
29403;DHT22;16382;59.942;30.472;2023-04-05T10:24:34;9.80;99.90
29403;DHT22;16382;59.942;30.472;2023-04-05T10:27:16;9.70;99.90
29403;DHT22;16382;59.942;30.472;2023-04-05T10:29:50;9.70;99.90
29403;DHT22;16382;59.942;30.472;2023-04-05T10:32:32;9.50;99.90
29403;DHT22;16382;59.942;30.472;2023-04-05T10:35:08;9.40;99.90
29403;DHT22;16382;59.942;30.472;2023-04-05T10:37:49;9.50;99.90
29403;DHT22;16382;59.942;30.472;2023-04-05T10:40:23;9.60;99.90
29403;DHT22;16382;59.942;30.472;2023-04-05T10:42:56;9.70;99.90
29403;DHT22;16382;59.942;30.472;2023-04-05T10:45:26;9.60;99.90
29403;DHT22;16382;59.942;30.472;2023-04-05T10:47:59;9.50;99.90
29403;DHT22;16382;59.942;30.472;2023-04-05T10:50:32;9.60;99.90
29403;DHT22;16382;59.942;30.472;2023-04-05T10:53:00;9.60;99.90
29403;DHT22;16382;59.942;30.472;2023-04-05T10:55:29;9.60;99.90
29403;DHT22;16382;59.942;30.472;2023-04-05T10:58:00;9.60;99.90
29403;DHT22;16382;59.942;30.472;2023-04-05T11:00:30;9.70;99.90
29403;DHT22;16382;59.942;30.472;2023-04-05T11:02:58;9.80;99.90
29403;DHT22;16382;59.942;30.472;2023-04-05T11:05:33;9.80;99.90
29403;DHT22;16382;59.942;30.472;2023-04-05T11:08:06;9.70;99.90
29403;DHT22;16382;59.942;30.472;2023-04-05T11:10:36;9.60;99.90
29403;DHT22;16382;59.942;30.472;2023-04-05T11:13:08;9.50;99.90
29403;DHT22;16382;59.942;30.472;2023-04-05T11:15:40;9.50;99.90
29403;DHT22;16382;59.942;30.472;2023-04-05T11:18:09;9.50;99.90
29403;DHT22;16382;59.942;30.472;2023-04-05T11:20:47;9.50;99.90
29403;DHT22;16382;59.942;30.472;2023-04-05T11:23:18;9.50;99.90
29403;DHT22;16382;59.942;30.472;2023-04-05T11:25:50;9.60;99.90
29403;DHT22;16382;59.942;30.472;2023-04-05T11:28:24;9.60;99.90
29403;DHT22;16382;59.942;30.472;2023-04-05T11:30:55;9.60;99.90
29403;DHT22;16382;59.942;30.472;2023-04-05T11:36:30;9.80;99.90
29403;DHT22;16382;59.942;30.472;2023-04-05T11:41:56;9.50;99.90
29403;DHT22;16382;59.942;30.472;2023-04-05T11:44:28;9.20;99.90
29403;DHT22;16382;59.942;30.472;2023-04-05T11:46:59;8.90;99.90
29403;DHT22;16382;59.942;30.472;2023-04-05T11:49:33;8.80;99.90
29403;DHT22;16382;59.942;30.472;2023-04-05T11:52:10;8.70;99.90
29403;DHT22;16382;59.942;30.472;2023-04-05T11:54:38;8.60;99.90
29403;DHT22;16382;59.942;30.472;2023-04-05T11:57:17;8.30;99.90
29403;DHT22;16382;59.942;30.472;2023-04-05T11:59:53;8.20;99.90
29403;DHT22;16382;59.942;30.472;2023-04-05T12:02:21;8.10;99.90
29403;DHT22;16382;59.942;30.472;2023-04-05T12:04:53;7.90;99.90
29403;DHT22;16382;59.942;30.472;2023-04-05T12:07:24;7.70;99.90
29403;DHT22;16382;59.942;30.472;2023-04-05T12:10:04;7.70;99.90
29403;DHT22;16382;59.942;30.472;2023-04-05T12:12:41;7.70;99.90
29403;DHT22;16382;59.942;30.472;2023-04-05T12:15:13;7.90;99.90
29403;DHT22;16382;59.942;30.472;2023-04-05T12:17:48;8.00;99.90
29403;DHT22;16382;59.942;30.472;2023-04-05T12:20:17;8.00;99.90
29403;DHT22;16382;59.942;30.472;2023-04-05T12:22:52;7.90;99.90
29403;DHT22;16382;59.942;30.472;2023-04-05T12:25:21;7.90;99.90
29403;DHT22;16382;59.942;30.472;2023-04-05T12:27:50;8.00;99.90
29403;DHT22;16382;59.942;30.472;2023-04-05T12:30:21;8.00;99.90
29403;DHT22;16382;59.942;30.472;2023-04-05T12:32:58;8.00;99.90
29403;DHT22;16382;59.942;30.472;2023-04-05T12:35:33;8.00;99.90
29403;DHT22;16382;59.942;30.472;2023-04-05T12:38:01;7.90;99.90
29403;DHT22;16382;59.942;30.472;2023-04-05T12:40:30;7.70;99.90
29403;DHT22;16382;59.942;30.472;2023-04-05T12:43:02;7.50;99.90
29403;DHT22;16382;59.942;30.472;2023-04-05T12:45:34;7.30;99.90
29403;DHT22;16382;59.942;30.472;2023-04-05T12:48:07;7.30;99.90
29403;DHT22;16382;59.942;30.472;2023-04-05T12:50:41;7.10;99.90
29403;DHT22;16382;59.942;30.472;2023-04-05T12:53:15;7.10;99.90
29403;DHT22;16382;59.942;30.472;2023-04-05T12:55:48;7.10;99.90
29403;DHT22;16382;59.942;30.472;2023-04-05T12:58:19;7.20;99.90
29403;DHT22;16382;59.942;30.472;2023-04-05T13:00:48;7.30;99.90
29403;DHT22;16382;59.942;30.472;2023-04-05T13:03:17;7.40;99.90
29403;DHT22;16382;59.942;30.472;2023-04-05T13:05:46;7.40;99.90
29403;DHT22;16382;59.942;30.472;2023-04-05T13:08:14;7.40;99.90
29403;DHT22;16382;59.942;30.472;2023-04-05T13:10:43;7.40;99.90
29403;DHT22;16382;59.942;30.472;2023-04-05T13:13:12;7.50;99.90
29403;DHT22;16382;59.942;30.472;2023-04-05T13:15:40;7.70;99.90
29403;DHT22;16382;59.942;30.472;2023-04-05T13:18:09;7.90;99.90
29403;DHT22;16382;59.942;30.472;2023-04-05T13:20:40;8.10;99.90
29403;DHT22;16382;59.942;30.472;2023-04-05T13:23:08;8.20;99.90
29403;DHT22;16382;59.942;30.472;2023-04-05T13:25:38;8.30;99.90
29403;DHT22;16382;59.942;30.472;2023-04-05T13:28:06;8.50;99.90
29403;DHT22;16382;59.942;30.472;2023-04-05T13:30:33;8.60;99.90
29403;DHT22;16382;59.942;30.472;2023-04-05T13:33:01;8.70;99.90
29403;DHT22;16382;59.942;30.472;2023-04-05T13:35:31;8.70;99.90
29403;DHT22;16382;59.942;30.472;2023-04-05T13:37:58;8.70;99.90
29403;DHT22;16382;59.942;30.472;2023-04-05T13:40:26;8.50;99.90
29403;DHT22;16382;59.942;30.472;2023-04-05T13:42:54;8.20;99.90
29403;DHT22;16382;59.942;30.472;2023-04-05T13:45:25;8.10;99.90
29403;DHT22;16382;59.942;30.472;2023-04-05T13:47:54;8.40;99.90
29403;DHT22;16382;59.942;30.472;2023-04-05T13:50:26;8.70;99.90
29403;DHT22;16382;59.942;30.472;2023-04-05T13:52:59;8.80;99.90
29403;DHT22;16382;59.942;30.472;2023-04-05T13:55:26;8.90;99.90
29403;DHT22;16382;59.942;30.472;2023-04-05T13:57:54;8.90;99.90
29403;DHT22;16382;59.942;30.472;2023-04-05T14:00:21;9.00;99.90
29403;DHT22;16382;59.942;30.472;2023-04-05T14:02:52;9.00;99.90
29403;DHT22;16382;59.942;30.472;2023-04-05T14:05:30;9.00;99.90
29403;DHT22;16382;59.942;30.472;2023-04-05T14:08:02;9.20;99.90
29403;DHT22;16382;59.942;30.472;2023-04-05T14:10:30;9.50;99.90
29403;DHT22;16382;59.942;30.472;2023-04-05T14:12:58;9.70;99.90
29403;DHT22;16382;59.942;30.472;2023-04-05T14:15:25;10.20;99.90
29403;DHT22;16382;59.942;30.472;2023-04-05T14:17:54;10.00;99.90
29403;DHT22;16382;59.942;30.472;2023-04-05T14:20:22;9.90;99.90
29403;DHT22;16382;59.942;30.472;2023-04-05T14:22:51;9.70;99.90
29403;DHT22;16382;59.942;30.472;2023-04-05T14:25:20;9.80;99.90
29403;DHT22;16382;59.942;30.472;2023-04-05T14:27:48;11.20;99.90
29403;DHT22;16382;59.942;30.472;2023-04-05T14:30:18;12.40;99.90
29403;DHT22;16382;59.942;30.472;2023-04-05T14:32:46;12.60;99.90
29403;DHT22;16382;59.942;30.472;2023-04-05T14:35:14;12.60;99.90
29403;DHT22;16382;59.942;30.472;2023-04-05T14:37:42;12.40;99.90
29403;DHT22;16382;59.942;30.472;2023-04-05T14:40:10;12.20;99.90
29403;DHT22;16382;59.942;30.472;2023-04-05T14:42:40;11.70;99.90
29403;DHT22;16382;59.942;30.472;2023-04-05T14:45:09;11.50;99.90
29403;DHT22;16382;59.942;30.472;2023-04-05T14:47:38;11.00;99.90
29403;DHT22;16382;59.942;30.472;2023-04-05T14:50:06;10.10;99.90
29403;DHT22;16382;59.942;30.472;2023-04-05T14:52:35;9.50;99.90
29403;DHT22;16382;59.942;30.472;2023-04-05T14:55:02;8.80;99.90
29403;DHT22;16382;59.942;30.472;2023-04-05T14:57:33;8.50;99.90
29403;DHT22;16382;59.942;30.472;2023-04-05T15:00:04;8.30;99.90
29403;DHT22;16382;59.942;30.472;2023-04-05T15:02:33;8.10;99.90
29403;DHT22;16382;59.942;30.472;2023-04-05T15:05:01;7.90;99.90
29403;DHT22;16382;59.942;30.472;2023-04-05T15:07:31;7.70;99.90
29403;DHT22;16382;59.942;30.472;2023-04-05T15:09:59;7.50;99.90
29403;DHT22;16382;59.942;30.472;2023-04-05T15:12:27;7.20;99.90
29403;DHT22;16382;59.942;30.472;2023-04-05T15:14:54;7.00;99.90
29403;DHT22;16382;59.942;30.472;2023-04-05T15:17:23;6.80;99.90
29403;DHT22;16382;59.942;30.472;2023-04-05T15:19:51;6.70;99.90
29403;DHT22;16382;59.942;30.472;2023-04-05T15:22:19;6.50;99.90
29403;DHT22;16382;59.942;30.472;2023-04-05T15:24:48;6.50;99.90
29403;DHT22;16382;59.942;30.472;2023-04-05T15:27:16;6.40;99.90
29403;DHT22;16382;59.942;30.472;2023-04-05T15:29:43;6.40;99.90
29403;DHT22;16382;59.942;30.472;2023-04-05T15:32:11;6.30;99.90
29403;DHT22;16382;59.942;30.472;2023-04-05T15:34:40;6.30;99.90
29403;DHT22;16382;59.942;30.472;2023-04-05T15:37:08;6.10;99.90
29403;DHT22;16382;59.942;30.472;2023-04-05T15:39:36;6.10;99.90
29403;DHT22;16382;59.942;30.472;2023-04-05T15:42:04;6.00;99.90
29403;DHT22;16382;59.942;30.472;2023-04-05T15:44:32;5.90;99.90
29403;DHT22;16382;59.942;30.472;2023-04-05T15:46:59;5.90;99.90
29403;DHT22;16382;59.942;30.472;2023-04-05T15:49:28;5.80;99.90
29403;DHT22;16382;59.942;30.472;2023-04-05T15:51:57;5.70;99.90
29403;DHT22;16382;59.942;30.472;2023-04-05T15:54:25;5.70;99.90
29403;DHT22;16382;59.942;30.472;2023-04-05T15:56:53;5.60;99.90
29403;DHT22;16382;59.942;30.472;2023-04-05T15:59:21;5.50;99.90
29403;DHT22;16382;59.942;30.472;2023-04-05T16:01:49;5.40;99.90
29403;DHT22;16382;59.942;30.472;2023-04-05T16:04:17;5.30;99.90